Time;durP1;ratioP1;P1;durP2;ratioP2;P2;SDS_P1;SDS_P2;PMS_P1;PMS_P2;Temp;Humidity;BMP_temperature;BMP_pressure;BME280_temperature;BME280_humidity;BME280_pressure;Samples;Min_cycle;Max_cycle;Signal;HPM_P1;HPM_P2
2021/03/16 00:00:51;;;;;;;;;42.25;34.50;;;;;12.15;44.25;97597.38;4883038;28;102905;-63
2021/03/16 00:03:18;;;;;;;;;34.00;27.00;;;;;12.15;44.93;97596.56;4886935;28;102662;-63
2021/03/16 00:05:45;;;;;;;;;36.75;31.25;;;;;12.15;44.48;97594.69;4880274;28;104471;-63
2021/03/16 00:08:12;;;;;;;;;38.00;31.00;;;;;12.15;44.52;97594.69;4885003;28;104469;-63
2021/03/16 00:10:39;;;;;;;;;32.25;31.75;;;;;12.14;44.41;97593.03;4884326;28;104171;-63
2021/03/16 00:13:06;;;;;;;;;42.00;31.75;;;;;12.14;44.61;97601.16;4888231;28;102984;-63
2021/03/16 00:15:33;;;;;;;;;39.50;30.50;;;;;12.12;44.81;97600.53;4891971;28;104314;-63
2021/03/16 00:18:01;;;;;;;;;38.50;29.75;;;;;12.11;44.67;97598.91;4891036;28;104256;-63
2021/03/16 00:20:28;;;;;;;;;32.25;29.00;;;;;12.10;45.06;97601.84;4885351;28;102768;-63
2021/03/16 00:22:55;;;;;;;;;35.25;31.00;;;;;12.09;44.52;97606.44;4885652;28;102834;-63
2021/03/16 00:25:21;;;;;;;;;33.50;30.00;;;;;12.08;45.14;97600.19;4886518;28;104352;-63
2021/03/16 00:27:48;;;;;;;;;32.50;30.75;;;;;12.08;44.64;97604.78;4885235;28;102836;-63
2021/03/16 00:30:15;;;;;;;;;37.75;28.25;;;;;12.06;44.32;97602.34;4881822;28;104267;-63
2021/03/16 00:32:42;;;;;;;;;34.00;30.50;;;;;12.08;44.65;97602.06;4888031;28;102873;-63
2021/03/16 00:35:09;;;;;;;;;41.50;30.75;;;;;12.07;44.42;97605.84;4889843;28;104339;-63
2021/03/16 00:37:36;;;;;;;;;33.50;28.25;;;;;12.05;44.65;97603.38;4887979;28;104194;-63
2021/03/16 00:40:04;;;;;;;;;38.75;33.00;;;;;12.05;44.28;97606.09;4884728;28;102803;-63
2021/03/16 00:42:31;;;;;;;;;37.75;30.25;;;;;12.06;44.27;97606.91;4887090;28;103829;-63
2021/03/16 00:44:58;;;;;;;;;33.75;27.25;;;;;12.01;44.67;97604.91;4892687;28;104254;-63
2021/03/16 00:47:24;;;;;;;;;36.00;31.50;;;;;12.04;44.54;97611.75;4886598;28;102745;-63
2021/03/16 00:49:51;;;;;;;;;36.50;28.75;;;;;12.03;44.50;97612.78;4884818;28;109724;-63
2021/03/16 00:52:18;;;;;;;;;36.25;29.25;;;;;12.03;44.55;97610.09;4884572;28;103730;-63
2021/03/16 00:54:44;;;;;;;;;33.50;27.50;;;;;12.02;44.51;97611.16;4879546;28;104094;-63
2021/03/16 00:57:12;;;;;;;;;37.00;29.75;;;;;12.03;44.62;97618.22;4885239;28;102792;-63
2021/03/16 00:59:38;;;;;;;;;33.25;29.50;;;;;12.01;44.75;97615.75;4883300;28;102970;-63
2021/03/16 01:02:05;;;;;;;;;36.25;28.75;;;;;12.00;44.90;97611.38;4880855;28;102879;-63
2021/03/16 01:04:32;;;;;;;;;36.50;26.25;;;;;11.99;44.21;97611.63;4869041;28;111026;-63
2021/03/16 01:06:58;;;;;;;;;36.50;31.50;;;;;11.99;44.50;97611.63;4860255;28;103952;-63
2021/03/16 01:09:25;;;;;;;;;33.00;28.50;;;;;11.99;44.11;97623.28;4877628;28;102916;-63
2021/03/16 01:11:51;;;;;;;;;32.25;28.00;;;;;11.98;44.40;97616.19;4870764;28;102764;-63
2021/03/16 01:14:18;;;;;;;;;39.25;32.75;;;;;11.98;44.91;97615.38;4887464;28;104204;-63
2021/03/16 01:16:45;;;;;;;;;30.75;27.00;;;;;11.97;44.02;97614.56;4883354;28;103056;-63
2021/03/16 01:19:12;;;;;;;;;33.50;27.25;;;;;11.97;44.50;97611.03;4891097;28;104168;-63
2021/03/16 01:21:39;;;;;;;;;38.00;30.00;;;;;11.96;44.64;97614.78;4884128;28;103578;-63
2021/03/16 01:24:06;;;;;;;;;19.00;10.00;;;;;11.96;43.85;97615.63;4879973;28;104289;-63
2021/03/16 01:26:33;;;;;;;;;29.25;25.25;;;;;11.96;44.49;97609.38;4882382;28;104064;-63
2021/03/16 01:29:02;;;;;;;;;38.75;29.50;;;;;11.94;44.76;97603.34;4883300;28;102866;-63
2021/03/16 01:31:29;;;;;;;;;31.50;27.75;;;;;11.94;44.43;97598.75;4884836;28;102868;-63
2021/03/16 01:33:56;;;;;;;;;30.50;25.50;;;;;11.94;44.37;97598.75;4885158;28;103127;-63
2021/03/16 01:36:23;;;;;;;;;38.00;27.75;;;;;11.94;44.48;97606.06;4883805;28;105156;-63
2021/03/16 01:38:50;;;;;;;;;28.75;26.50;;;;;11.93;44.51;97605.25;4885644;28;102912;-63
2021/03/16 01:41:17;;;;;;;;;35.75;29.25;;;;;11.91;44.23;97601.94;4882614;28;103175;-63
2021/03/16 01:43:43;;;;;;;;;28.50;27.00;;;;;11.92;44.11;97602.78;4890299;28;104254;-62
2021/03/16 01:46:11;;;;;;;;;37.25;26.25;;;;;11.91;44.40;97604.66;4893046;28;102682;-63
2021/03/16 01:48:38;;;;;;;;;30.00;25.00;;;;;11.91;44.36;97606.53;4888137;28;107125;-63
2021/03/16 01:51:10;;;;;;;;;36.00;30.50;;;;;11.90;44.45;97602.19;4882081;28;102934;-63
2021/03/16 01:53:39;;;;;;;;;29.50;26.50;;;;;11.89;44.25;97611.34;4882873;28;103542;-63
2021/03/16 01:56:21;;;;;;;;;30.25;26.75;;;;;11.89;44.28;97614.06;4816415;28;103086;-63
2021/03/16 01:58:48;;;;;;;;;41.75;31.75;;;;;11.88;44.43;97626.81;4887511;28;103002;-63
2021/03/16 02:01:14;;;;;;;;;35.50;30.00;;;;;11.88;44.61;97620.56;4886693;28;103596;-62
2021/03/16 02:03:41;;;;;;;;;34.25;29.00;;;;;11.88;43.97;97625.97;4887688;28;104464;-63
2021/03/16 02:06:15;;;;;;;;;31.50;28.75;;;;;11.88;43.40;97625.97;4879050;28;102827;-63
2021/03/16 02:08:51;;;;;;;;;31.75;28.50;;;;;11.86;44.11;97618.06;4856170;28;102960;-63
2021/03/16 02:11:24;;;;;;;;;35.50;29.50;;;;;11.87;44.06;97624.31;4866739;28;103962;-63
2021/03/16 02:14:08;;;;;;;;;39.75;32.25;;;;;11.85;44.60;97615.59;4886125;28;103833;-63
2021/03/16 02:16:36;;;;;;;;;33.25;29.50;;;;;11.85;44.21;97626.44;4884741;28;104247;-63
2021/03/16 02:19:08;;;;;;;;;32.25;28.25;;;;;11.85;44.22;97621.00;4881406;28;102964;-63
2021/03/16 02:21:35;;;;;;;;;36.00;27.75;;;;;11.85;44.34;97621.84;4881144;28;103977;-63
2021/03/16 02:24:10;;;;;;;;;28.25;24.00;;;;;11.84;44.22;97630.22;4878643;28;104280;-63
2021/03/16 02:27:15;;;;;;;;;33.50;28.50;;;;;11.82;44.42;97619.59;4878795;28;104592;-64
2021/03/16 02:29:50;;;;;;;;;30.75;28.00;;;;;11.82;44.24;97616.91;4883861;28;102901;-63
2021/03/16 02:32:19;;;;;;;;;30.75;26.50;;;;;11.82;43.86;97616.06;4876165;28;102902;-63
2021/03/16 02:34:50;;;;;;;;;33.25;29.75;;;;;11.81;44.02;97617.94;4883047;28;104236;-63
2021/03/16 02:37:17;;;;;;;;;32.50;28.75;;;;;11.78;44.23;97618.41;4883167;28;103191;-63
2021/03/16 02:39:44;;;;;;;;;33.25;26.00;;;;;11.80;43.86;97621.72;4868922;28;104277;-63
2021/03/16 02:42:11;;;;;;;;;32.75;29.25;;;;;11.80;43.93;97615.47;4883196;28;102516;-63
2021/03/16 02:44:38;;;;;;;;;33.50;28.00;;;;;11.80;44.07;97619.00;4882287;28;104203;-63
2021/03/16 02:47:05;;;;;;;;;37.75;29.25;;;;;11.78;43.91;97617.59;4885235;28;102734;-63
2021/03/16 02:49:35;;;;;;;;;31.00;27.50;;;;;11.78;44.19;97617.59;4882201;28;102821;-63
2021/03/16 02:52:02;;;;;;;;;32.25;26.00;;;;;11.78;44.15;97614.88;4884368;28;102954;-63
2021/03/16 02:54:28;;;;;;;;;35.25;27.75;;;;;11.77;44.19;97618.66;4872013;28;104193;-63
2021/03/16 02:57:08;;;;;;;;;31.75;29.50;;;;;11.77;44.01;97621.34;4889557;28;102829;-63
2021/03/16 02:59:35;;;;;;;;;33.25;27.75;;;;;11.77;43.85;97613.22;4886527;28;104331;-63
2021/03/16 03:02:03;;;;;;;;;35.00;29.75;;;;;11.77;44.34;97619.47;4889518;28;103094;-63
2021/03/16 03:04:30;;;;;;;;;29.75;26.75;;;;;11.75;44.07;97618.06;4872818;28;104235;-63
2021/03/16 03:06:58;;;;;;;;;35.75;32.25;;;;;11.75;43.82;97639.72;4869894;28;102875;-63
2021/03/16 03:09:25;;;;;;;;;38.75;26.75;;;;;11.74;44.34;97632.66;4885271;28;102502;-63
2021/03/16 03:11:51;;;;;;;;;31.50;26.00;;;;;11.74;44.23;97641.63;4885960;28;103745;-63
2021/03/16 03:14:18;;;;;;;;;26.75;24.00;;;;;11.72;44.20;97646.41;4867136;28;104067;-63
2021/03/16 03:16:45;;;;;;;;;31.00;28.25;;;;;11.73;44.00;97644.53;4888085;28;102792;-63
2021/03/16 03:19:11;;;;;;;;;33.50;26.25;;;;;11.73;43.86;97649.97;4882204;28;102961;-63
2021/03/16 03:22:10;;;;;;;;;30.25;26.00;;;;;11.73;43.96;97641.84;4888582;28;102795;-63
2021/03/16 03:24:40;;;;;;;;;38.00;29.00;;;;;11.73;43.97;97644.53;4813650;28;109186;-63
2021/03/16 03:27:31;;;;;;;;;32.00;26.25;;;;;11.72;43.84;97637.44;4885223;28;102843;-63
2021/03/16 03:29:57;;;;;;;;;31.50;23.25;;;;;11.70;43.90;97644.97;4785416;28;102932;-63
2021/03/16 03:32:24;;;;;;;;;29.00;24.50;;;;;11.70;44.07;97647.69;4880993;28;102987;-63
2021/03/16 03:34:51;;;;;;;;;24.75;22.75;;;;;11.70;44.21;97655.81;4873247;28;104362;-63
2021/03/16 03:37:21;;;;;;;;;34.25;27.75;;;;;11.69;44.08;97654.16;4885496;28;102967;-63
2021/03/16 03:39:47;;;;;;;;;31.00;24.75;;;;;11.69;43.81;97663.13;4885986;28;102691;-63
2021/03/16 03:42:18;;;;;;;;;22.00;21.50;;;;;11.68;43.97;97668.75;4887227;28;102925;-63
2021/03/16 03:44:45;;;;;;;;;26.50;22.00;;;;;11.67;43.69;97664.38;4887392;28;108998;-63
2021/03/16 03:47:12;;;;;;;;;29.75;26.00;;;;;11.64;43.67;97658.38;4885392;28;103113;-63
2021/03/16 03:49:38;;;;;;;;;32.25;26.75;;;;;11.68;44.07;97666.88;4868783;28;106266;-63
2021/03/16 03:52:05;;;;;;;;;31.75;25.00;;;;;11.67;43.73;97667.09;4888411;28;104091;-63
2021/03/16 03:54:32;;;;;;;;;26.50;24.25;;;;;11.66;43.96;97665.47;4888981;28;104319;-63
2021/03/16 03:56:58;;;;;;;;;24.00;19.75;;;;;11.67;43.58;97667.91;4887415;28;102926;-63
2021/03/16 03:59:25;;;;;;;;;30.00;24.25;;;;;11.67;44.03;97672.50;4886766;28;102922;-63
2021/03/16 04:01:51;;;;;;;;;28.25;25.25;;;;;11.65;43.24;97675.47;4892799;28;104126;-63
2021/03/16 04:04:18;;;;;;;;;28.25;23.00;;;;;11.64;43.96;97663.81;4875538;28;104323;-63
2021/03/16 04:06:45;;;;;;;;;32.50;25.25;;;;;11.64;43.93;97677.34;4886947;28;102984;-63
2021/03/16 04:09:12;;;;;;;;;21.75;20.25;;;;;11.64;44.05;97671.09;4869758;28;102696;-63
2021/03/16 04:11:39;;;;;;;;;30.50;27.50;;;;;11.64;43.60;97669.22;4886342;28;103112;-63
2021/03/16 04:14:06;;;;;;;;;34.25;25.25;;;;;11.67;44.07;97667.91;4888864;28;103919;-63
2021/03/16 04:16:32;;;;;;;;;33.75;28.25;;;;;11.68;43.79;97672.28;4884345;28;103960;-63
2021/03/16 04:18:59;;;;;;;;;27.50;23.25;;;;;11.72;43.79;97669.94;4883546;28;102817;-63
2021/03/16 04:21:26;;;;;;;;;27.75;23.00;;;;;11.75;43.71;97669.53;4886124;28;105363;-63
2021/03/16 04:23:52;;;;;;;;;26.25;24.50;;;;;11.77;43.60;97667.41;4888544;28;104309;-63
2021/03/16 04:26:19;;;;;;;;;23.00;21.25;;;;;11.79;43.50;97665.28;4870650;28;102951;-63
2021/03/16 04:28:45;;;;;;;;;28.75;21.50;;;;;11.80;43.54;97666.91;4888910;28;102977;-63
2021/03/16 04:31:12;;;;;;;;;22.75;21.50;;;;;11.81;43.75;97669.41;4888674;28;102715;-63
2021/03/16 04:33:38;;;;;;;;;28.25;22.75;;;;;11.82;43.38;97670.22;4891724;28;103587;-63
2021/03/16 04:36:06;;;;;;;;;31.50;24.75;;;;;11.83;43.39;97677.31;4893053;28;102800;-63
2021/03/16 04:38:32;;;;;;;;;28.00;26.25;;;;;11.83;43.62;97672.72;4892358;28;102708;-63
2021/03/16 04:40:59;;;;;;;;;28.00;23.25;;;;;11.83;43.85;97671.91;4890910;28;104448;-63
2021/03/16 04:43:25;;;;;;;;;27.50;23.75;;;;;11.84;43.69;97678.97;4889310;28;104247;-63
2021/03/16 04:45:52;;;;;;;;;28.50;26.25;;;;;11.85;43.74;97692.25;4889075;28;102889;-63
2021/03/16 04:48:19;;;;;;;;;27.00;23.00;;;;;11.86;43.43;97684.97;4881066;28;102655;-63
2021/03/16 04:50:46;;;;;;;;;31.50;23.50;;;;;11.85;43.20;97686.00;4892012;28;102726;-63
2021/03/16 04:53:13;;;;;;;;;27.00;24.75;;;;;11.86;43.91;97687.66;4889062;28;104271;-63
2021/03/16 04:55:39;;;;;;;;;28.00;25.50;;;;;11.87;43.17;97697.47;4888315;28;103021;-63
2021/03/16 04:58:06;;;;;;;;;31.25;25.75;;;;;11.86;43.63;97687.66;4891238;28;102609;-63
2021/03/16 05:00:33;;;;;;;;;30.00;25.00;;;;;11.86;43.59;97693.91;4891188;28;102891;-63
2021/03/16 05:02:59;;;;;;;;;31.75;29.25;;;;;11.86;43.51;97695.81;4892721;28;104143;-63
2021/03/16 05:05:26;;;;;;;;;34.25;28.75;;;;;11.86;43.40;97699.34;4891760;28;102877;-63
2021/03/16 05:07:53;;;;;;;;;30.50;25.25;;;;;11.85;43.38;97700.38;4890869;28;102749;-63
2021/03/16 05:10:20;;;;;;;;;34.75;27.75;;;;;11.86;43.43;97699.34;4889087;28;104110;-63
2021/03/16 05:12:46;;;;;;;;;34.75;24.75;;;;;11.85;42.95;97704.97;4886415;28;104261;-63
2021/03/16 05:15:13;;;;;;;;;39.00;31.50;;;;;11.84;43.61;97703.34;4891837;28;102813;-63
2021/03/16 05:17:40;;;;;;;;;32.50;24.50;;;;;11.85;43.18;97702.25;4889334;28;102739;-63
2021/03/16 05:20:08;;;;;;;;;34.75;29.00;;;;;11.84;43.32;97695.22;4890923;28;103209;-63
2021/03/16 05:22:34;;;;;;;;;32.75;28.50;;;;;11.84;43.14;97708.75;4887599;28;103871;-63
2021/03/16 05:25:01;;;;;;;;;33.00;29.50;;;;;11.83;43.19;97705.22;4884945;28;102663;-63
2021/03/16 05:27:28;;;;;;;;;30.75;28.25;;;;;11.82;43.36;97711.69;4893184;28;103089;-63
2021/03/16 05:29:54;;;;;;;;;31.00;27.25;;;;;11.83;43.33;97724.19;4891657;28;103090;-63
2021/03/16 05:32:21;;;;;;;;;29.50;27.00;;;;;11.83;43.35;97721.47;4883002;28;104325;-63
2021/03/16 05:34:48;;;;;;;;;29.25;25.00;;;;;11.83;43.40;97726.06;4893924;28;103127;-63
2021/03/16 05:37:18;;;;;;;;;36.25;27.25;;;;;11.81;43.18;97723.56;4888695;28;102858;-63
2021/03/16 05:39:45;;;;;;;;;27.75;23.75;;;;;11.82;43.27;97729.81;4893563;28;103511;-63
2021/03/16 05:42:12;;;;;;;;;23.75;22.00;;;;;11.82;42.98;97724.41;4891210;28;104403;-63
2021/03/16 05:44:38;;;;;;;;;31.75;25.25;;;;;11.81;43.10;97723.56;4893390;28;102837;-66
2021/03/16 05:47:05;;;;;;;;;33.50;29.25;;;;;11.82;43.38;97719.00;4891542;28;103000;-65
2021/03/16 05:49:32;;;;;;;;;31.00;27.25;;;;;11.81;43.10;97729.00;4873477;28;104159;-66
2021/03/16 05:51:58;;;;;;;;;28.25;26.00;;;;;11.81;43.16;97733.59;4888988;28;104618;-66
2021/03/16 05:54:25;;;;;;;;;31.75;26.00;;;;;11.80;43.21;97732.75;4887948;28;102790;-66
2021/03/16 05:56:52;;;;;;;;;32.75;24.00;;;;;11.80;43.25;97729.22;4891114;28;102969;-66
2021/03/16 05:59:23;;;;;;;;;32.00;26.25;;;;;11.80;43.04;97740.88;4886338;28;103067;-66
2021/03/16 06:01:50;;;;;;;;;39.25;28.00;;;;;11.80;43.14;97743.59;4885671;28;103698;-66
2021/03/16 06:04:17;;;;;;;;;28.00;25.50;;;;;11.78;43.20;97734.06;4893053;28;102750;-66
2021/03/16 06:06:44;;;;;;;;;34.50;26.50;;;;;11.80;43.12;97748.16;4884211;28;104032;-66
2021/03/16 06:09:10;;;;;;;;;32.00;29.25;;;;;11.79;43.00;97747.38;4888011;28;104405;-66
2021/03/16 06:11:46;;;;;;;;;27.50;25.50;;;;;11.79;43.17;97750.09;4882308;28;104338;-66
2021/03/16 06:14:12;;;;;;;;;28.00;25.50;;;;;11.79;43.13;97751.97;4883134;28;103863;-66
2021/03/16 06:16:39;;;;;;;;;33.75;25.50;;;;;11.79;43.22;97757.38;4879396;28;103411;-63
2021/03/16 06:19:06;;;;;;;;;29.75;25.25;;;;;11.78;43.20;97767.38;4884349;28;104254;-63
2021/03/16 06:21:33;;;;;;;;;0.00;0.00;;;;;11.78;43.12;97772.78;4890677;28;104265;-63
2021/03/16 06:24:00;;;;;;;;;35.75;29.00;;;;;11.78;43.32;97761.13;4888270;28;103016;-63
2021/03/16 06:26:29;;;;;;;;;33.25;29.75;;;;;11.77;43.10;97764.88;4890065;28;102932;-63
2021/03/16 06:29:09;;;;;;;;;34.00;29.75;;;;;11.77;42.81;97770.31;4889190;28;102914;-63
2021/03/16 06:31:36;;;;;;;;;32.75;30.00;;;;;11.77;43.08;97773.00;4888349;28;104226;-63
2021/03/16 06:34:03;;;;;;;;;35.25;28.25;;;;;11.76;43.26;97776.78;4881978;28;103096;-63
2021/03/16 06:36:31;;;;;;;;;37.00;27.25;;;;;11.76;42.89;97776.78;4887963;28;102650;-63
2021/03/16 06:38:58;;;;;;;;;32.25;30.00;;;;;11.75;43.45;97773.25;4886336;28;102715;-63
2021/03/16 06:41:25;;;;;;;;;37.50;31.00;;;;;11.76;43.20;97782.19;4888412;28;104322;-63
2021/03/16 06:44:02;;;;;;;;;39.75;30.50;;;;;11.75;43.20;97783.28;4885146;28;104211;-63
2021/03/16 06:46:33;;;;;;;;;41.00;30.75;;;;;11.75;43.19;97785.97;4884570;28;102863;-66
2021/03/16 06:49:22;;;;;;;;;35.25;31.00;;;;;11.74;43.13;97789.72;4890461;28;102831;-66
2021/03/16 06:51:49;;;;;;;;;33.00;30.50;;;;;11.74;43.10;97787.84;4887327;28;110090;-66
2021/03/16 06:54:20;;;;;;;;;36.75;31.75;;;;;11.75;42.93;97796.81;4883203;28;102846;-66
2021/03/16 06:56:54;;;;;;;;;38.50;32.25;;;;;11.74;43.10;97797.84;4890994;28;102644;-66
2021/03/16 06:59:26;;;;;;;;;37.75;31.00;;;;;11.74;43.20;97789.72;4886506;28;106651;-66
2021/03/16 07:01:53;;;;;;;;;35.25;28.50;;;;;11.74;43.15;97803.28;4890021;28;109630;-66
2021/03/16 07:04:29;;;;;;;;;32.25;28.75;;;;;11.73;43.32;97796.19;4892310;28;102724;-66
2021/03/16 07:06:56;;;;;;;;;32.50;28.50;;;;;11.73;43.03;97809.75;4826416;28;105063;-66
2021/03/16 07:09:23;;;;;;;;;33.50;31.25;;;;;11.72;43.28;97805.34;4890163;28;102743;-66
2021/03/16 07:11:51;;;;;;;;;40.75;34.00;;;;;11.72;43.26;97797.22;4892645;28;104283;-66
2021/03/16 07:14:21;;;;;;;;;38.75;32.00;;;;;11.74;43.23;97808.69;4889759;28;102868;-66
2021/03/16 07:16:48;;;;;;;;;40.00;32.75;;;;;11.73;43.26;97807.03;4889174;28;102980;-66
2021/03/16 07:19:16;;;;;;;;;33.00;30.50;;;;;11.72;43.22;97806.19;4888050;28;102892;-66
2021/03/16 07:21:51;;;;;;;;;36.75;31.25;;;;;11.72;42.91;97817.03;4890480;28;104248;-66
2021/03/16 07:24:38;;;;;;;;;43.50;31.50;;;;;11.72;43.18;97814.31;4887613;28;102582;-66
2021/03/16 07:27:05;;;;;;;;;37.00;30.00;;;;;11.71;43.49;97814.53;4825945;28;102930;-65
2021/03/16 07:29:32;;;;;;;;;38.00;31.00;;;;;11.71;43.30;97819.97;4887172;28;102508;-66
2021/03/16 07:32:03;;;;;;;;;39.75;32.75;;;;;11.72;43.08;97814.31;4889463;28;104494;-66
2021/03/16 07:34:31;;;;;;;;;25.75;20.00;;;;;11.72;43.26;97822.44;4887045;28;102786;-66
2021/03/16 07:36:57;;;;;;;;;35.50;30.00;;;;;11.72;43.18;97825.16;4888945;28;103862;-66
2021/03/16 07:39:25;;;;;;;;;34.75;30.75;;;;;11.73;43.32;97828.69;4885074;28;102764;-66
2021/03/16 07:41:51;;;;;;;;;34.75;30.00;;;;;11.74;43.13;97835.78;4892984;28;104374;-66
2021/03/16 07:44:19;;;;;;;;;33.75;30.25;;;;;11.74;43.37;97833.06;4890362;28;102762;-66
2021/03/16 07:46:53;;;;;;;;;37.00;34.00;;;;;11.73;43.18;97844.94;4890287;28;102940;-66
2021/03/16 07:49:30;;;;;;;;;35.75;32.00;;;;;11.74;43.48;97833.06;4886326;28;102748;-66
2021/03/16 07:51:56;;;;;;;;;32.25;28.75;;;;;11.74;43.50;97846.59;4881240;28;108514;-66
2021/03/16 07:54:36;;;;;;;;;31.50;27.25;;;;;11.73;43.25;97851.19;4880857;28;104459;-64
2021/03/16 07:57:03;;;;;;;;;34.50;28.25;;;;;11.70;43.11;97846.22;4848995;28;102749;-66
2021/03/16 07:59:31;;;;;;;;;40.00;29.75;;;;;11.73;42.98;97850.34;4888677;28;104277;-66
2021/03/16 08:01:57;;;;;;;;;43.50;30.25;;;;;11.73;43.34;97851.19;4882034;28;104165;-65
2021/03/16 08:04:33;;;;;;;;;43.75;31.25;;;;;11.73;43.26;97855.78;4889451;28;102744;-65
2021/03/16 08:07:01;;;;;;;;;41.25;30.25;;;;;11.74;43.23;97857.44;4889063;28;102854;-66
2021/03/16 08:09:28;;;;;;;;;39.00;33.25;;;;;11.72;43.52;97857.66;4890318;28;102860;-65
2021/03/16 08:11:55;;;;;;;;;35.75;32.50;;;;;11.73;43.03;97858.47;4887941;28;103977;-65
2021/03/16 08:14:26;;;;;;;;;36.00;30.00;;;;;11.72;43.14;97868.50;4885596;28;102723;-66
2021/03/16 08:16:53;;;;;;;;;35.50;31.25;;;;;11.72;43.19;97863.06;4886523;28;102999;-66
2021/03/16 08:19:34;;;;;;;;;36.00;31.00;;;;;11.71;42.95;97868.69;4890367;28;102762;-66
2021/03/16 08:22:01;;;;;;;;;40.25;28.25;;;;;11.71;43.07;97866.00;4827207;28;109243;-66
2021/03/16 08:24:36;;;;;;;;;31.25;28.00;;;;;11.71;42.97;97872.22;4886139;28;102721;-66
2021/03/16 08:27:03;;;;;;;;;36.00;28.75;;;;;11.71;43.06;97868.69;4886728;28;102702;-66
2021/03/16 08:29:31;;;;;;;;;36.50;24.75;;;;;11.71;43.55;97863.28;4892399;28;102843;-66
2021/03/16 08:31:58;;;;;;;;;34.25;30.00;;;;;11.72;43.23;97870.34;4888883;28;104292;-66
2021/03/16 08:34:26;;;;;;;;;31.50;28.25;;;;;11.71;43.35;97868.69;4889806;28;102761;-66
2021/03/16 08:36:53;;;;;;;;;35.75;29.25;;;;;11.70;43.18;97869.75;4896357;28;102858;-66
2021/03/16 08:39:21;;;;;;;;;31.50;25.00;;;;;11.70;43.04;97869.75;4882685;28;102591;-66
2021/03/16 08:42:01;;;;;;;;;34.00;28.50;;;;;11.71;43.50;97868.69;4892842;28;104296;-66
2021/03/16 08:44:29;;;;;;;;;31.25;25.00;;;;;11.72;43.33;97864.91;4887998;28;103601;-66
2021/03/16 08:46:59;;;;;;;;;29.50;28.00;;;;;11.70;42.89;97867.88;4893270;28;102614;-65
2021/03/16 08:49:26;;;;;;;;;29.50;26.50;;;;;11.70;43.24;97867.03;4887576;28;102832;-66
2021/03/16 08:51:52;;;;;;;;;34.25;27.25;;;;;11.70;43.18;97873.28;4890765;28;104087;-66
2021/03/16 08:54:29;;;;;;;;;31.25;28.50;;;;;11.71;43.18;97874.13;4891860;28;102802;-63
2021/03/16 08:56:55;;;;;;;;;29.75;23.50;;;;;11.70;43.15;97872.47;4885275;28;102608;-63
2021/03/16 08:59:22;;;;;;;;;34.00;26.75;;;;;11.70;42.89;97869.75;4895723;28;102810;-63
2021/03/16 09:01:51;;;;;;;;;36.25;30.25;;;;;11.69;43.29;97868.09;4893258;28;109240;-63
2021/03/16 09:04:18;;;;;;;;;32.00;22.25;;;;;11.70;43.56;97877.88;4893458;28;102912;-63
2021/03/16 09:06:49;;;;;;;;;31.50;28.50;;;;;11.70;42.94;97877.88;4885224;28;102613;-63
2021/03/16 09:09:23;;;;;;;;;29.25;25.75;;;;;11.70;43.15;97883.28;4895462;28;102802;-63
2021/03/16 09:11:49;;;;;;;;;31.25;27.75;;;;;11.68;43.39;97875.38;4888634;28;104246;-63
2021/03/16 09:14:17;;;;;;;;;28.25;26.50;;;;;11.69;43.26;97871.63;4893996;28;102642;-63
2021/03/16 09:16:45;;;;;;;;;32.25;27.25;;;;;11.69;42.96;97876.22;4890862;28;102753;-63
2021/03/16 09:19:17;;;;;;;;;29.75;23.50;;;;;11.69;43.11;97877.03;4893425;28;102652;-63
2021/03/16 09:22:02;;;;;;;;;31.25;25.50;;;;;11.70;43.01;97883.28;4894263;28;104270;-63
2021/03/16 09:24:30;;;;;;;;;31.00;27.50;;;;;11.69;42.91;97878.91;4888142;28;102688;-63
2021/03/16 09:27:01;;;;;;;;;30.50;24.00;;;;;11.69;43.48;97887.03;4892026;28;102744;-63
2021/03/16 09:29:32;;;;;;;;;23.25;19.50;;;;;11.69;43.18;97887.03;4895271;28;104046;-63
2021/03/16 09:32:14;;;;;;;;;30.25;24.00;;;;;11.68;43.38;97886.22;4893269;28;104642;-63
2021/03/16 09:34:44;;;;;;;;;32.25;26.50;;;;;11.69;43.25;97892.47;4892416;28;103499;-63
2021/03/16 09:37:12;;;;;;;;;30.25;28.00;;;;;11.69;43.19;97892.47;4893313;28;102802;-63
2021/03/16 09:39:39;;;;;;;;;26.25;24.00;;;;;11.68;43.47;97897.03;4893650;28;102826;-63
2021/03/16 09:42:06;;;;;;;;;31.75;25.50;;;;;11.68;43.01;97894.34;4889727;28;104344;-63
2021/03/16 09:44:42;;;;;;;;;21.25;20.75;;;;;11.69;43.10;97897.88;4894503;28;104277;-63
2021/03/16 09:47:11;;;;;;;;;28.00;26.25;;;;;11.68;43.28;97894.34;4888346;28;102923;-63
2021/03/16 09:49:40;;;;;;;;;27.75;22.25;;;;;11.68;43.33;97897.03;4892929;28;102947;-63
2021/03/16 09:52:10;;;;;;;;;25.25;23.50;;;;;11.68;43.22;97894.34;4890620;28;103997;-63
2021/03/16 09:54:38;;;;;;;;;28.75;25.50;;;;;11.69;43.15;97896.00;4890814;28;102722;-66
2021/03/16 09:57:08;;;;;;;;;25.50;23.75;;;;;11.69;43.26;97904.13;4884689;28;102872;-66
2021/03/16 09:59:36;;;;;;;;;27.75;22.25;;;;;11.68;43.14;97901.63;4893836;28;103894;-66
2021/03/16 10:02:03;;;;;;;;;32.50;24.00;;;;;11.69;43.12;97898.72;4890102;28;104330;-66
2021/03/16 10:04:42;;;;;;;;;22.25;20.50;;;;;11.70;43.06;97904.94;4889749;28;102751;-66
2021/03/16 10:07:09;;;;;;;;;20.25;19.00;;;;;11.70;43.08;97904.94;4893692;28;104452;-66
2021/03/16 10:09:40;;;;;;;;;19.75;18.50;;;;;11.69;43.21;97903.28;4891591;28;103054;-66
2021/03/16 10:12:20;;;;;;;;;23.25;21.00;;;;;11.70;43.10;97903.06;4885907;28;104384;-66
2021/03/16 10:14:51;;;;;;;;;23.25;21.00;;;;;11.70;43.10;97908.50;4891260;28;102931;-66
2021/03/16 10:17:31;;;;;;;;;23.75;20.50;;;;;11.70;42.98;97907.66;4848773;28;102820;-66
2021/03/16 10:20:00;;;;;;;;;20.75;17.25;;;;;11.69;43.32;97906.00;4885259;28;103990;-65
2021/03/16 10:22:31;;;;;;;;;23.25;20.50;;;;;11.68;43.25;97905.16;4891449;28;104218;-64
2021/03/16 10:24:59;;;;;;;;;20.00;18.75;;;;;11.70;43.04;97913.06;4888418;28;102801;-65
2021/03/16 10:27:30;;;;;;;;;22.75;21.75;;;;;11.70;42.80;97911.19;4884659;28;102707;-66
2021/03/16 10:29:57;;;;;;;;;23.50;20.50;;;;;11.69;43.20;97914.13;4886383;28;103232;-64
2021/03/16 10:32:27;;;;;;;;;18.50;17.75;;;;;11.70;43.10;97910.38;4889584;28;104461;-64
2021/03/16 10:34:54;;;;;;;;;23.75;17.50;;;;;11.69;43.11;97908.72;4889116;28;103530;-66
2021/03/16 10:37:22;;;;;;;;;27.00;22.75;;;;;11.69;42.99;97912.25;4888220;28;102619;-66
2021/03/16 10:39:48;;;;;;;;;27.50;21.75;;;;;11.69;42.90;97908.72;4893476;28;102595;-66
2021/03/16 10:42:15;;;;;;;;;22.75;19.50;;;;;11.68;42.96;97910.59;4889956;28;104397;-66
2021/03/16 10:44:42;;;;;;;;;24.00;19.75;;;;;11.69;42.99;97914.13;4889474;28;102710;-66
2021/03/16 10:47:09;;;;;;;;;21.75;20.00;;;;;11.68;43.28;97917.88;4894505;28;102700;-66
2021/03/16 10:49:36;;;;;;;;;24.00;21.00;;;;;11.68;42.97;97917.88;4885087;28;103148;-65
2021/03/16 10:52:04;;;;;;;;;25.75;17.50;;;;;11.67;43.30;97911.63;4872359;28;104072;-66
2021/03/16 10:54:30;;;;;;;;;20.75;18.00;;;;;11.68;43.16;97912.47;4878567;28;102699;-63
2021/03/16 10:56:57;;;;;;;;;16.75;14.50;;;;;11.69;42.95;97922.25;4868692;28;103186;-63
2021/03/16 10:59:24;;;;;;;;;20.75;16.50;;;;;11.68;43.21;97923.28;4872028;28;102733;-63
2021/03/16 11:01:51;;;;;;;;;20.00;16.50;;;;;11.68;43.00;97928.72;4874232;28;104091;-63
2021/03/16 11:04:18;;;;;;;;;16.75;15.00;;;;;11.67;42.93;97922.47;4872791;28;102826;-63
2021/03/16 11:06:45;;;;;;;;;19.50;17.50;;;;;11.67;42.99;97921.63;4881720;28;102696;-63
2021/03/16 11:09:15;;;;;;;;;19.50;15.50;;;;;11.67;43.28;97932.47;4874427;28;104496;-63
2021/03/16 11:11:42;;;;;;;;;20.00;16.00;;;;;11.67;43.08;97925.16;4876622;28;104260;-63
2021/03/16 11:14:09;;;;;;;;;19.00;17.50;;;;;11.64;43.26;97929.16;4877516;28;103628;-63
2021/03/16 11:16:36;;;;;;;;;15.75;14.00;;;;;11.67;43.11;97929.75;4879470;28;102802;-63